sensor_id;sensor_type;location;lat;lon;timestamp;pressure;altitude;pressure_sealevel;temperature;humidity
23433;BME280;41331;45.412;10.992;2023-04-05T00:02:16;101207.16;;;6.88;54.68
23433;BME280;41331;45.412;10.992;2023-04-05T00:04:44;101201.94;;;7.20;53.92
23433;BME280;41331;45.412;10.992;2023-04-05T00:07:18;101200.94;;;7.11;53.98
23433;BME280;41331;45.412;10.992;2023-04-05T00:09:47;101200.72;;;7.08;53.40
23433;BME280;41331;45.412;10.992;2023-04-05T00:12:15;101203.47;;;7.03;53.44
23433;BME280;41331;45.412;10.992;2023-04-05T00:14:42;101205.91;;;7.04;53.49
23433;BME280;41331;45.412;10.992;2023-04-05T00:17:09;101200.63;;;7.18;53.78
23433;BME280;41331;45.412;10.992;2023-04-05T00:19:38;101196.34;;;7.12;53.33
23433;BME280;41331;45.412;10.992;2023-04-05T00:22:05;101204.06;;;6.99;52.33
23433;BME280;41331;45.412;10.992;2023-04-05T00:24:37;101204.75;;;7.10;52.54
23433;BME280;41331;45.412;10.992;2023-04-05T00:27:09;101200.47;;;7.33;52.07
23433;BME280;41331;45.412;10.992;2023-04-05T00:29:36;101202.28;;;7.38;51.83
23433;BME280;41331;45.412;10.992;2023-04-05T00:32:03;101200.78;;;7.26;52.31
23433;BME280;41331;45.412;10.992;2023-04-05T00:34:31;101209.50;;;7.23;51.22
23433;BME280;41331;45.412;10.992;2023-04-05T00:36:59;101201.44;;;7.18;51.73
23433;BME280;41331;45.412;10.992;2023-04-05T00:39:26;101202.69;;;7.26;51.52
23433;BME280;41331;45.412;10.992;2023-04-05T00:41:54;101202.94;;;7.30;51.43
23433;BME280;41331;45.412;10.992;2023-04-05T00:44:22;101206.09;;;7.37;51.22
23433;BME280;41331;45.412;10.992;2023-04-05T00:46:49;101203.97;;;7.34;51.74
23433;BME280;41331;45.412;10.992;2023-04-05T00:49:16;101202.06;;;7.34;51.01
23433;BME280;41331;45.412;10.992;2023-04-05T00:51:43;101201.53;;;7.32;51.33
23433;BME280;41331;45.412;10.992;2023-04-05T00:54:12;101205.16;;;7.22;51.40
23433;BME280;41331;45.412;10.992;2023-04-05T00:56:39;101193.41;;;7.32;50.90
23433;BME280;41331;45.412;10.992;2023-04-05T00:59:07;101192.97;;;7.49;50.40
23433;BME280;41331;45.412;10.992;2023-04-05T01:01:34;101198.66;;;7.47;50.04
23433;BME280;41331;45.412;10.992;2023-04-05T01:04:04;101197.06;;;7.46;50.95
23433;BME280;41331;45.412;10.992;2023-04-05T01:06:50;101195.44;;;7.45;50.92
23433;BME280;41331;45.412;10.992;2023-04-05T01:11:50;101188.94;;;7.46;50.33
23433;BME280;41331;45.412;10.992;2023-04-05T01:14:18;101190.53;;;7.47;50.27
23433;BME280;41331;45.412;10.992;2023-04-05T01:16:45;101195.06;;;7.33;50.94
23433;BME280;41331;45.412;10.992;2023-04-05T01:19:15;101195.56;;;7.35;50.35
23433;BME280;41331;45.412;10.992;2023-04-05T01:26:58;101199.44;;;7.29;49.79
23433;BME280;41331;45.412;10.992;2023-04-05T01:29:44;101195.97;;;7.23;50.35
23433;BME280;41331;45.412;10.992;2023-04-05T01:34:55;101197.16;;;7.36;49.14
23433;BME280;41331;45.412;10.992;2023-04-05T01:37:25;101189.59;;;7.38;48.39
23433;BME280;41331;45.412;10.992;2023-04-05T01:39:53;101192.00;;;7.40;48.60
23433;BME280;41331;45.412;10.992;2023-04-05T01:42:22;101186.63;;;7.35;48.94
23433;BME280;41331;45.412;10.992;2023-04-05T01:44:51;101182.75;;;7.41;48.46
23433;BME280;41331;45.412;10.992;2023-04-05T01:47:18;101177.75;;;7.29;47.82
23433;BME280;41331;45.412;10.992;2023-04-05T01:49:47;101175.44;;;7.41;46.93
23433;BME280;41331;45.412;10.992;2023-04-05T01:52:14;101181.63;;;7.23;47.37
23433;BME280;41331;45.412;10.992;2023-04-05T01:54:42;101184.38;;;7.42;47.21
23433;BME280;41331;45.412;10.992;2023-04-05T01:57:09;101182.72;;;7.46;46.27
23433;BME280;41331;45.412;10.992;2023-04-05T01:59:36;101184.72;;;7.35;46.34
23433;BME280;41331;45.412;10.992;2023-04-05T02:02:04;101188.06;;;7.27;46.57
23433;BME280;41331;45.412;10.992;2023-04-05T02:04:31;101183.19;;;7.53;46.60
23433;BME280;41331;45.412;10.992;2023-04-05T02:06:58;101186.56;;;7.40;46.45
23433;BME280;41331;45.412;10.992;2023-04-05T02:09:26;101177.53;;;7.25;46.82
23433;BME280;41331;45.412;10.992;2023-04-05T02:11:53;101183.81;;;7.21;47.46
23433;BME280;41331;45.412;10.992;2023-04-05T02:14:23;101186.09;;;7.09;47.67
23433;BME280;41331;45.412;10.992;2023-04-05T02:16:50;101177.22;;;7.27;47.48
23433;BME280;41331;45.412;10.992;2023-04-05T02:19:20;101182.81;;;7.36;46.86
23433;BME280;41331;45.412;10.992;2023-04-05T02:21:49;101180.59;;;7.19;47.50
23433;BME280;41331;45.412;10.992;2023-04-05T02:24:18;101176.47;;;7.21;47.86
23433;BME280;41331;45.412;10.992;2023-04-05T02:26:46;101182.25;;;7.15;47.24
23433;BME280;41331;45.412;10.992;2023-04-05T02:29:13;101168.63;;;6.96;47.70
23433;BME280;41331;45.412;10.992;2023-04-05T02:31:41;101173.91;;;6.82;48.23
23433;BME280;41331;45.412;10.992;2023-04-05T02:34:08;101183.75;;;6.73;49.33
23433;BME280;41331;45.412;10.992;2023-04-05T02:36:37;101185.44;;;6.64;49.61
23433;BME280;41331;45.412;10.992;2023-04-05T02:39:04;101175.13;;;6.66;49.10
23433;BME280;41331;45.412;10.992;2023-04-05T02:41:31;101171.91;;;6.64;50.43
23433;BME280;41331;45.412;10.992;2023-04-05T02:43:59;101187.47;;;6.77;50.04
23433;BME280;41331;45.412;10.992;2023-04-05T02:46:29;101187.34;;;6.63;50.05
23433;BME280;41331;45.412;10.992;2023-04-05T02:48:57;101180.84;;;6.64;50.50
23433;BME280;41331;45.412;10.992;2023-04-05T02:51:27;101181.53;;;6.75;50.56
23433;BME280;41331;45.412;10.992;2023-04-05T02:53:54;101190.75;;;6.74;50.30
23433;BME280;41331;45.412;10.992;2023-04-05T02:56:22;101179.25;;;6.87;49.26
23433;BME280;41331;45.412;10.992;2023-04-05T02:58:49;101181.50;;;6.80;49.07
23433;BME280;41331;45.412;10.992;2023-04-05T03:01:22;101181.00;;;6.78;49.19
23433;BME280;41331;45.412;10.992;2023-04-05T03:03:49;101184.09;;;6.90;50.16
23433;BME280;41331;45.412;10.992;2023-04-05T03:06:17;101180.25;;;6.96;49.49
23433;BME280;41331;45.412;10.992;2023-04-05T03:08:48;101183.44;;;7.04;49.37
23433;BME280;41331;45.412;10.992;2023-04-05T03:11:22;101177.56;;;6.96;48.97
23433;BME280;41331;45.412;10.992;2023-04-05T03:13:54;101181.81;;;7.03;48.99
23433;BME280;41331;45.412;10.992;2023-04-05T03:16:38;101180.69;;;7.09;48.28
23433;BME280;41331;45.412;10.992;2023-04-05T03:19:13;101176.88;;;7.10;48.91
23433;BME280;41331;45.412;10.992;2023-04-05T03:21:44;101172.78;;;7.12;48.14
23433;BME280;41331;45.412;10.992;2023-04-05T03:24:23;101171.31;;;7.25;48.20
23433;BME280;41331;45.412;10.992;2023-04-05T03:26:52;101170.50;;;7.24;47.00
23433;BME280;41331;45.412;10.992;2023-04-05T03:29:22;101175.13;;;7.24;47.17
23433;BME280;41331;45.412;10.992;2023-04-05T03:31:50;101172.66;;;7.22;47.79
23433;BME280;41331;45.412;10.992;2023-04-05T03:34:21;101176.53;;;7.16;48.07
23433;BME280;41331;45.412;10.992;2023-04-05T03:36:49;101179.88;;;7.32;47.22
23433;BME280;41331;45.412;10.992;2023-04-05T03:39:37;101174.25;;;7.29;47.67
23433;BME280;41331;45.412;10.992;2023-04-05T03:42:04;101176.47;;;7.21;47.35
23433;BME280;41331;45.412;10.992;2023-04-05T03:44:31;101171.38;;;7.20;47.83
23433;BME280;41331;45.412;10.992;2023-04-05T03:46:58;101171.41;;;7.15;48.84
23433;BME280;41331;45.412;10.992;2023-04-05T03:49:25;101171.81;;;7.27;48.83
23433;BME280;41331;45.412;10.992;2023-04-05T03:51:53;101174.63;;;7.17;47.76
23433;BME280;41331;45.412;10.992;2023-04-05T03:54:20;101179.88;;;7.32;47.78
23433;BME280;41331;45.412;10.992;2023-04-05T03:56:50;101177.91;;;7.38;48.43
23433;BME280;41331;45.412;10.992;2023-04-05T03:59:18;101169.84;;;7.33;48.19
23433;BME280;41331;45.412;10.992;2023-04-05T04:01:45;101171.69;;;7.37;48.02
23433;BME280;41331;45.412;10.992;2023-04-05T04:04:13;101172.28;;;7.34;47.50
23433;BME280;41331;45.412;10.992;2023-04-05T04:06:44;101178.03;;;7.27;48.63
23433;BME280;41331;45.412;10.992;2023-04-05T04:09:14;101175.06;;;7.29;47.75
23433;BME280;41331;45.412;10.992;2023-04-05T04:11:41;101172.78;;;7.36;46.89
23433;BME280;41331;45.412;10.992;2023-04-05T04:14:09;101170.16;;;7.31;47.86
23433;BME280;41331;45.412;10.992;2023-04-05T04:16:46;101178.81;;;7.33;47.40
23433;BME280;41331;45.412;10.992;2023-04-05T04:19:28;101174.47;;;7.32;46.83
23433;BME280;41331;45.412;10.992;2023-04-05T04:22:04;101179.03;;;7.37;47.08
23433;BME280;41331;45.412;10.992;2023-04-05T04:24:46;101177.34;;;7.41;46.98
23433;BME280;41331;45.412;10.992;2023-04-05T04:27:45;101178.88;;;7.28;48.51
23433;BME280;41331;45.412;10.992;2023-04-05T04:30:33;101169.63;;;7.29;47.37
23433;BME280;41331;45.412;10.992;2023-04-05T04:33:08;101172.06;;;7.31;48.01
23433;BME280;41331;45.412;10.992;2023-04-05T04:36:05;101168.53;;;7.30;46.76
23433;BME280;41331;45.412;10.992;2023-04-05T04:38:53;101172.63;;;7.27;46.83
23433;BME280;41331;45.412;10.992;2023-04-05T04:41:32;101165.03;;;7.30;47.16
23433;BME280;41331;45.412;10.992;2023-04-05T04:44:22;101170.16;;;7.31;47.80
23433;BME280;41331;45.412;10.992;2023-04-05T04:47:13;101169.34;;;7.31;47.47
23433;BME280;41331;45.412;10.992;2023-04-05T04:49:56;101169.63;;;7.29;46.83
23433;BME280;41331;45.412;10.992;2023-04-05T04:52:27;101175.00;;;7.34;47.19
23433;BME280;41331;45.412;10.992;2023-04-05T04:54:54;101178.50;;;7.35;46.97
23433;BME280;41331;45.412;10.992;2023-04-05T04:57:21;101177.53;;;7.25;47.35
23433;BME280;41331;45.412;10.992;2023-04-05T04:59:50;101183.97;;;7.30;46.73
23433;BME280;41331;45.412;10.992;2023-04-05T05:02:21;101186.16;;;7.27;47.27
23433;BME280;41331;45.412;10.992;2023-04-05T05:04:49;101185.09;;;7.29;47.37
23433;BME280;41331;45.412;10.992;2023-04-05T05:07:16;101188.34;;;7.25;47.00
23433;BME280;41331;45.412;10.992;2023-04-05T05:09:43;101188.13;;;7.22;46.77
23433;BME280;41331;45.412;10.992;2023-04-05T05:12:10;101194.06;;;7.24;47.59
23433;BME280;41331;45.412;10.992;2023-04-05T05:14:37;101189.97;;;7.26;46.93
23433;BME280;41331;45.412;10.992;2023-04-05T05:17:04;101192.66;;;7.26;46.94
23433;BME280;41331;45.412;10.992;2023-04-05T05:19:32;101194.22;;;7.33;47.32
23433;BME280;41331;45.412;10.992;2023-04-05T05:21:59;101193.72;;;7.31;46.99
23433;BME280;41331;45.412;10.992;2023-04-05T05:24:27;101189.41;;;7.30;46.27
23433;BME280;41331;45.412;10.992;2023-04-05T05:26:54;101196.94;;;7.33;46.23
23433;BME280;41331;45.412;10.992;2023-04-05T05:29:21;101200.47;;;7.33;46.46
23433;BME280;41331;45.412;10.992;2023-04-05T05:31:49;101201.94;;;7.20;47.35
23433;BME280;41331;45.412;10.992;2023-04-05T05:34:16;101199.81;;;7.17;46.83
23433;BME280;41331;45.412;10.992;2023-04-05T05:36:51;101198.69;;;7.23;47.18
23433;BME280;41331;45.412;10.992;2023-04-05T05:39:19;101199.03;;;7.41;46.81
23433;BME280;41331;45.412;10.992;2023-04-05T05:41:46;101205.28;;;7.36;46.12
23433;BME280;41331;45.412;10.992;2023-04-05T05:44:13;101210.94;;;7.40;47.23
23433;BME280;41331;45.412;10.992;2023-04-05T05:46:41;101204.78;;;7.58;46.12
23433;BME280;41331;45.412;10.992;2023-04-05T05:49:08;101208.63;;;7.52;46.89
23433;BME280;41331;45.412;10.992;2023-04-05T05:51:35;101212.75;;;7.49;46.68
23433;BME280;41331;45.412;10.992;2023-04-05T05:54:02;101208.38;;;7.53;46.59
23433;BME280;41331;45.412;10.992;2023-04-05T05:56:30;101209.25;;;7.68;46.85
23433;BME280;41331;45.412;10.992;2023-04-05T05:58:57;101211.06;;;7.96;46.15
23433;BME280;41331;45.412;10.992;2023-04-05T06:01:25;101211.38;;;7.95;45.63
23433;BME280;41331;45.412;10.992;2023-04-05T06:03:54;101214.75;;;8.05;45.78
23433;BME280;41331;45.412;10.992;2023-04-05T06:06:21;101217.66;;;8.28;45.95
23433;BME280;41331;45.412;10.992;2023-04-05T06:08:49;101212.88;;;8.44;44.84
23433;BME280;41331;45.412;10.992;2023-04-05T06:11:20;101221.50;;;8.65;45.00
23433;BME280;41331;45.412;10.992;2023-04-05T06:13:49;101216.34;;;8.96;43.24
23433;BME280;41331;45.412;10.992;2023-04-05T06:16:18;101218.78;;;8.65;44.03
23433;BME280;41331;45.412;10.992;2023-04-05T06:18:45;101215.25;;;8.64;44.12
23433;BME280;41331;45.412;10.992;2023-04-05T06:21:13;101217.06;;;9.01;44.39
23433;BME280;41331;45.412;10.992;2023-04-05T06:23:41;101214.50;;;9.38;42.51
23433;BME280;41331;45.412;10.992;2023-04-05T06:26:08;101218.72;;;9.30;42.44
23433;BME280;41331;45.412;10.992;2023-04-05T06:28:35;101216.81;;;9.58;42.44
23433;BME280;41331;45.412;10.992;2023-04-05T06:31:02;101211.97;;;9.69;41.22
23433;BME280;41331;45.412;10.992;2023-04-05T06:33:29;101217.38;;;10.10;40.77
23433;BME280;41331;45.412;10.992;2023-04-05T06:35:57;101212.81;;;9.69;40.63
23433;BME280;41331;45.412;10.992;2023-04-05T06:38:24;101217.41;;;9.96;40.58
23433;BME280;41331;45.412;10.992;2023-04-05T06:40:51;101217.69;;;10.45;39.83
23433;BME280;41331;45.412;10.992;2023-04-05T06:43:18;101214.59;;;11.05;38.91
23433;BME280;41331;45.412;10.992;2023-04-05T06:45:45;101205.16;;;12.51;36.31
23433;BME280;41331;45.412;10.992;2023-04-05T06:48:12;101213.53;;;14.16;33.39
23433;BME280;41331;45.412;10.992;2023-04-05T06:50:39;101214.44;;;15.77;31.48
23433;BME280;41331;45.412;10.992;2023-04-05T06:53:07;101200.41;;;17.35;29.13
23433;BME280;41331;45.412;10.992;2023-04-05T06:55:34;101194.63;;;18.26;26.84
23433;BME280;41331;45.412;10.992;2023-04-05T06:58:02;101194.28;;;17.57;28.24
23433;BME280;41331;45.412;10.992;2023-04-05T07:00:30;101195.94;;;18.52;28.00
23433;BME280;41331;45.412;10.992;2023-04-05T07:02:57;101198.56;;;18.64;26.99
23433;BME280;41331;45.412;10.992;2023-04-05T07:05:24;101192.47;;;18.74;26.60
23433;BME280;41331;45.412;10.992;2023-04-05T07:07:51;101203.13;;;18.18;26.59
23433;BME280;41331;45.412;10.992;2023-04-05T07:10:19;101208.25;;;16.61;29.08
23433;BME280;41331;45.412;10.992;2023-04-05T07:12:46;101207.22;;;15.85;29.02
23433;BME280;41331;45.412;10.992;2023-04-05T07:15:14;101202.53;;;15.98;29.72
23433;BME280;41331;45.412;10.992;2023-04-05T07:17:41;101204.16;;;15.87;30.01
23433;BME280;41331;45.412;10.992;2023-04-05T07:20:08;101202.72;;;16.05;29.85
23433;BME280;41331;45.412;10.992;2023-04-05T07:22:35;101202.31;;;16.31;30.91
23433;BME280;41331;45.412;10.992;2023-04-05T07:25:03;101212.25;;;16.92;29.46
23433;BME280;41331;45.412;10.992;2023-04-05T07:27:31;101199.91;;;17.96;27.90
23433;BME280;41331;45.412;10.992;2023-04-05T07:29:58;101206.09;;;17.74;27.07
23433;BME280;41331;45.412;10.992;2023-04-05T07:32:25;101208.84;;;17.74;27.96
23433;BME280;41331;45.412;10.992;2023-04-05T07:34:53;101216.69;;;18.26;27.38
23433;BME280;41331;45.412;10.992;2023-04-05T07:37:20;101212.41;;;18.29;27.22
23433;BME280;41331;45.412;10.992;2023-04-05T07:39:47;101209.34;;;17.64;27.09
23433;BME280;41331;45.412;10.992;2023-04-05T07:42:14;101216.38;;;16.01;28.30
23433;BME280;41331;45.412;10.992;2023-04-05T07:44:43;101218.63;;;16.12;30.16
23433;BME280;41331;45.412;10.992;2023-04-05T07:47:11;101213.00;;;17.36;28.27
23433;BME280;41331;45.412;10.992;2023-04-05T07:49:38;101217.41;;;18.81;26.70
23433;BME280;41331;45.412;10.992;2023-04-05T07:52:05;101220.44;;;18.96;25.50
23433;BME280;41331;45.412;10.992;2023-04-05T07:54:32;101229.78;;;17.78;26.84
23433;BME280;41331;45.412;10.992;2023-04-05T07:56:59;101226.69;;;18.34;25.99
23433;BME280;41331;45.412;10.992;2023-04-05T07:59:27;101224.31;;;18.33;26.55
23433;BME280;41331;45.412;10.992;2023-04-05T08:01:54;101231.06;;;18.00;26.31
23433;BME280;41331;45.412;10.992;2023-04-05T08:04:27;101229.25;;;17.09;27.75
23433;BME280;41331;45.412;10.992;2023-04-05T08:06:55;101227.44;;;17.01;27.58
23433;BME280;41331;45.412;10.992;2023-04-05T08:09:22;101233.19;;;15.88;29.65
23433;BME280;41331;45.412;10.992;2023-04-05T08:11:49;101230.66;;;16.47;29.19
23433;BME280;41331;45.412;10.992;2023-04-05T08:14:16;101233.66;;;15.77;29.51
23433;BME280;41331;45.412;10.992;2023-04-05T08:16:43;101232.88;;;16.29;28.89
23433;BME280;41331;45.412;10.992;2023-04-05T08:19:11;101232.38;;;17.40;27.50
23433;BME280;41331;45.412;10.992;2023-04-05T08:21:41;101227.53;;;18.97;26.14
23433;BME280;41331;45.412;10.992;2023-04-05T08:24:08;101226.03;;;18.41;26.35
23433;BME280;41331;45.412;10.992;2023-04-05T08:26:35;101230.13;;;20.38;25.12
23433;BME280;41331;45.412;10.992;2023-04-05T08:29:02;101223.38;;;21.03;24.35
23433;BME280;41331;45.412;10.992;2023-04-05T08:31:29;101232.94;;;19.81;24.73
23433;BME280;41331;45.412;10.992;2023-04-05T08:33:56;101243.09;;;18.66;26.25
23433;BME280;41331;45.412;10.992;2023-04-05T08:36:24;101229.88;;;19.18;25.03
23433;BME280;41331;45.412;10.992;2023-04-05T08:38:52;101231.06;;;18.94;27.24
23433;BME280;41331;45.412;10.992;2023-04-05T08:41:20;101225.09;;;20.77;23.96
23433;BME280;41331;45.412;10.992;2023-04-05T08:43:55;101223.41;;;20.65;24.43
23433;BME280;41331;45.412;10.992;2023-04-05T08:46:23;101233.13;;;19.96;24.30
23433;BME280;41331;45.412;10.992;2023-04-05T08:48:51;101231.81;;;19.86;25.41
23433;BME280;41331;45.412;10.992;2023-04-05T08:51:19;101227.25;;;21.32;23.06
23433;BME280;41331;45.412;10.992;2023-04-05T08:53:47;101228.56;;;20.07;24.09
23433;BME280;41331;45.412;10.992;2023-04-05T08:56:15;101222.66;;;20.38;25.40
23433;BME280;41331;45.412;10.992;2023-04-05T08:58:46;101228.53;;;20.33;24.54
23433;BME280;41331;45.412;10.992;2023-04-05T09:01:15;101220.78;;;20.46;24.95
23433;BME280;41331;45.412;10.992;2023-04-05T09:03:42;101232.91;;;20.08;23.93
23433;BME280;41331;45.412;10.992;2023-04-05T09:06:11;101230.09;;;19.78;24.36
23433;BME280;41331;45.412;10.992;2023-04-05T09:08:39;101236.22;;;19.64;24.12
23433;BME280;41331;45.412;10.992;2023-04-05T09:11:07;101231.16;;;19.01;25.80
23433;BME280;41331;45.412;10.992;2023-04-05T09:13:34;101226.53;;;19.28;25.95
23433;BME280;41331;45.412;10.992;2023-04-05T09:16:01;101219.78;;;20.95;24.36
23433;BME280;41331;45.412;10.992;2023-04-05T09:18:28;101219.38;;;20.97;25.18
23433;BME280;41331;45.412;10.992;2023-04-05T09:21:02;101217.41;;;20.93;23.22
23433;BME280;41331;45.412;10.992;2023-04-05T09:23:32;101212.22;;;20.88;23.42
23433;BME280;41331;45.412;10.992;2023-04-05T09:25:59;101211.78;;;20.53;24.39
23433;BME280;41331;45.412;10.992;2023-04-05T09:28:38;101228.78;;;19.45;25.65
23433;BME280;41331;45.412;10.992;2023-04-05T09:31:06;101219.53;;;20.40;25.65
23433;BME280;41331;45.412;10.992;2023-04-05T09:33:33;101227.00;;;18.49;27.68
23433;BME280;41331;45.412;10.992;2023-04-05T09:36:00;101224.47;;;19.02;26.97
23433;BME280;41331;45.412;10.992;2023-04-05T09:38:43;101222.56;;;19.52;25.49
23433;BME280;41331;45.412;10.992;2023-04-05T09:41:10;101208.88;;;20.42;26.16
23433;BME280;41331;45.412;10.992;2023-04-05T09:43:38;101207.59;;;21.44;23.85
23433;BME280;41331;45.412;10.992;2023-04-05T09:46:06;101201.59;;;21.38;23.09
23433;BME280;41331;45.412;10.992;2023-04-05T09:48:46;101211.88;;;19.24;26.86
23433;BME280;41331;45.412;10.992;2023-04-05T09:51:14;101211.69;;;18.51;25.79
23433;BME280;41331;45.412;10.992;2023-04-05T09:56:28;101203.31;;;19.78;24.82
23433;BME280;41331;45.412;10.992;2023-04-05T09:58:59;101209.31;;;20.14;25.25
23433;BME280;41331;45.412;10.992;2023-04-05T10:01:30;101206.88;;;19.79;25.81
23433;BME280;41331;45.412;10.992;2023-04-05T10:03:58;101210.72;;;19.25;26.50
23433;BME280;41331;45.412;10.992;2023-04-05T10:06:38;101204.19;;;19.86;24.38
23433;BME280;41331;45.412;10.992;2023-04-05T10:09:06;101204.56;;;19.84;25.29
23433;BME280;41331;45.412;10.992;2023-04-05T10:11:35;101200.81;;;19.01;26.81
23433;BME280;41331;45.412;10.992;2023-04-05T10:14:03;101193.66;;;19.19;26.88
23433;BME280;41331;45.412;10.992;2023-04-05T10:16:49;101190.47;;;19.17;27.89
23433;BME280;41331;45.412;10.992;2023-04-05T10:19:22;101192.94;;;18.99;27.92
23433;BME280;41331;45.412;10.992;2023-04-05T10:21:52;101189.00;;;19.00;26.39
23433;BME280;41331;45.412;10.992;2023-04-05T10:27:04;101184.41;;;19.08;27.74
23433;BME280;41331;45.412;10.992;2023-04-05T10:32:34;101175.25;;;19.76;25.14
23433;BME280;41331;45.412;10.992;2023-04-05T10:37:37;101175.34;;;20.81;24.05
23433;BME280;41331;45.412;10.992;2023-04-05T10:40:07;101185.31;;;20.22;24.24
23433;BME280;41331;45.412;10.992;2023-04-05T10:42:41;101179.75;;;19.88;24.79
23433;BME280;41331;45.412;10.992;2023-04-05T10:45:12;101180.50;;;19.85;25.44
23433;BME280;41331;45.412;10.992;2023-04-05T10:47:42;101172.94;;;21.20;23.69
23433;BME280;41331;45.412;10.992;2023-04-05T10:50:11;101174.59;;;19.10;25.98
23433;BME280;41331;45.412;10.992;2023-04-05T10:52:41;101165.81;;;20.75;24.47
23433;BME280;41331;45.412;10.992;2023-04-05T10:55:08;101159.34;;;21.01;24.97
23433;BME280;41331;45.412;10.992;2023-04-05T10:57:36;101160.53;;;21.03;26.15
23433;BME280;41331;45.412;10.992;2023-04-05T11:00:03;101164.53;;;19.71;25.32
23433;BME280;41331;45.412;10.992;2023-04-05T11:02:31;101169.75;;;19.04;27.73
23433;BME280;41331;45.412;10.992;2023-04-05T11:05:02;101163.78;;;19.02;27.90
23433;BME280;41331;45.412;10.992;2023-04-05T11:07:43;101159.00;;;18.76;28.15
23433;BME280;41331;45.412;10.992;2023-04-05T11:10:16;101158.09;;;19.14;25.73
23433;BME280;41331;45.412;10.992;2023-04-05T11:20:39;101153.88;;;18.16;28.81
23433;BME280;41331;45.412;10.992;2023-04-05T11:23:08;101151.22;;;17.49;27.73
23433;BME280;41331;45.412;10.992;2023-04-05T11:25:39;101149.03;;;17.23;28.48
23433;BME280;41331;45.412;10.992;2023-04-05T11:28:07;101144.72;;;17.73;28.01
23433;BME280;41331;45.412;10.992;2023-04-05T11:30:47;101140.38;;;18.92;28.08
23433;BME280;41331;45.412;10.992;2023-04-05T11:36:03;101136.81;;;17.56;28.42
23433;BME280;41331;45.412;10.992;2023-04-05T11:38:30;101135.84;;;18.19;28.03
23433;BME280;41331;45.412;10.992;2023-04-05T11:41:31;101132.44;;;18.06;27.95
23433;BME280;41331;45.412;10.992;2023-04-05T11:43:51;101120.66;;;16.44;28.47
23433;BME280;41331;45.412;10.992;2023-04-05T11:46:19;101129.59;;;17.16;28.37
23433;BME280;41331;45.412;10.992;2023-04-05T11:48:50;101122.63;;;15.63;29.43
23433;BME280;41331;45.412;10.992;2023-04-05T11:51:17;101117.66;;;16.21;29.49
23433;BME280;41331;45.412;10.992;2023-04-05T11:53:46;101121.72;;;16.55;30.74
23433;BME280;41331;45.412;10.992;2023-04-05T11:56:13;101123.41;;;16.88;30.65
23433;BME280;41331;45.412;10.992;2023-04-05T11:58:42;101117.03;;;16.83;28.38
23433;BME280;41331;45.412;10.992;2023-04-05T12:01:09;101106.91;;;17.03;29.27
23433;BME280;41331;45.412;10.992;2023-04-05T12:03:36;101105.81;;;17.75;28.61
23433;BME280;41331;45.412;10.992;2023-04-05T12:06:04;101105.75;;;16.45;29.52
23433;BME280;41331;45.412;10.992;2023-04-05T12:11:06;101108.41;;;17.01;30.14
23433;BME280;41331;45.412;10.992;2023-04-05T12:13:35;101096.09;;;16.95;28.89
23433;BME280;41331;45.412;10.992;2023-04-05T12:16:03;101102.56;;;16.27;29.18
23433;BME280;41331;45.412;10.992;2023-04-05T12:18:31;101108.91;;;16.31;29.96
23433;BME280;41331;45.412;10.992;2023-04-05T12:20:59;101092.78;;;17.05;30.01
23433;BME280;41331;45.412;10.992;2023-04-05T12:23:27;101095.25;;;17.96;29.69
23433;BME280;41331;45.412;10.992;2023-04-05T12:25:54;101095.41;;;18.46;29.18
23433;BME280;41331;45.412;10.992;2023-04-05T12:28:22;101096.63;;;18.06;28.29
23433;BME280;41331;45.412;10.992;2023-04-05T12:30:53;101091.09;;;17.00;30.63
23433;BME280;41331;45.412;10.992;2023-04-05T12:33:31;101092.00;;;16.29;30.98
23433;BME280;41331;45.412;10.992;2023-04-05T12:36:00;101082.38;;;16.07;31.17
23433;BME280;41331;45.412;10.992;2023-04-05T12:38:30;101084.59;;;16.61;30.54
23433;BME280;41331;45.412;10.992;2023-04-05T12:41:00;101086.50;;;17.04;30.10
23433;BME280;41331;45.412;10.992;2023-04-05T12:43:40;101084.53;;;17.21;28.52
23433;BME280;41331;45.412;10.992;2023-04-05T12:46:09;101085.88;;;17.11;28.13
23433;BME280;41331;45.412;10.992;2023-04-05T12:48:36;101075.91;;;16.15;31.72
23433;BME280;41331;45.412;10.992;2023-04-05T12:51:05;101075.66;;;16.64;30.59
23433;BME280;41331;45.412;10.992;2023-04-05T12:53:43;101083.41;;;16.46;29.42
23433;BME280;41331;45.412;10.992;2023-04-05T12:56:10;101081.69;;;17.33;28.48
23433;BME280;41331;45.412;10.992;2023-04-05T12:58:38;101078.53;;;17.70;29.10
23433;BME280;41331;45.412;10.992;2023-04-05T13:01:06;101073.09;;;18.31;28.21
23433;BME280;41331;45.412;10.992;2023-04-05T13:03:33;101062.22;;;17.61;27.40
23433;BME280;41331;45.412;10.992;2023-04-05T13:06:03;101054.94;;;17.69;28.99
23433;BME280;41331;45.412;10.992;2023-04-05T13:08:30;101050.38;;;17.06;29.10
23433;BME280;41331;45.412;10.992;2023-04-05T13:10:57;101057.59;;;16.79;30.15
23433;BME280;41331;45.412;10.992;2023-04-05T13:13:24;101054.94;;;16.07;31.03
23433;BME280;41331;45.412;10.992;2023-04-05T13:15:51;101055.69;;;16.51;31.21
23433;BME280;41331;45.412;10.992;2023-04-05T13:18:19;101042.94;;;17.06;30.52
23433;BME280;41331;45.412;10.992;2023-04-05T13:20:46;101046.59;;;16.95;30.18
23433;BME280;41331;45.412;10.992;2023-04-05T13:23:13;101043.44;;;16.17;30.55
23433;BME280;41331;45.412;10.992;2023-04-05T13:25:41;101038.19;;;16.12;32.92
23433;BME280;41331;45.412;10.992;2023-04-05T13:28:09;101035.88;;;15.86;31.58
23433;BME280;41331;45.412;10.992;2023-04-05T13:30:36;101034.22;;;15.82;31.31
23433;BME280;41331;45.412;10.992;2023-04-05T13:33:03;101036.09;;;15.65;31.61